Time;durP1;ratioP1;P1;durP2;ratioP2;P2;SDS_P1;SDS_P2;PMS_P1;PMS_P2;Temp;Humidity;BMP_temperature;BMP_pressure;BME280_temperature;BME280_humidity;BME280_pressure;Samples;Min_cycle;Max_cycle;Signal;HPM_P1;HPM_P2
2023/09/14 00:01:25;;;;;;;2.43;1.60;;;;;;;;;;5049384;28;20496;-56
2023/09/14 00:03:53;;;;;;;2.77;1.70;;;;;;;;;;5049475;28;20473;-55
2023/09/14 00:06:20;;;;;;;3.00;1.97;;;;;;;;;;5048877;28;20446;-56
2023/09/14 00:08:47;;;;;;;2.50;1.70;;;;;;;;;;5049067;28;20507;-56
2023/09/14 00:11:15;;;;;;;2.43;1.37;;;;;;;;;;5049092;28;20496;-56
2023/09/14 00:13:42;;;;;;;2.80;1.63;;;;;;;;;;5049093;28;20481;-56
2023/09/14 00:16:10;;;;;;;2.30;1.47;;;;;;;;;;5049221;28;20505;-56
2023/09/14 00:18:38;;;;;;;2.00;1.23;;;;;;;;;;5049177;28;20963;-56
2023/09/14 00:21:05;;;;;;;2.60;1.73;;;;;;;;;;5049224;28;20497;-56
2023/09/14 00:23:32;;;;;;;3.00;1.53;;;;;;;;;;5049203;28;20502;-55
2023/09/14 00:26:00;;;;;;;2.33;1.30;;;;;;;;;;5048921;28;20488;-56
2023/09/14 00:28:27;;;;;;;1.90;1.20;;;;;;;;;;5049188;28;20444;-56
2023/09/14 00:30:54;;;;;;;1.93;1.13;;;;;;;;;;5048915;28;20508;-55
2023/09/14 00:33:23;;;;;;;2.33;1.40;;;;;;;;;;5050192;28;20465;-55
2023/09/14 00:35:50;;;;;;;4.10;1.40;;;;;;;;;;5052138;28;20523;-56
2023/09/14 00:38:18;;;;;;;1.97;1.27;;;;;;;;;;5052586;28;20940;-55
2023/09/14 00:40:45;;;;;;;2.43;1.40;;;;;;;;;;5052510;28;21056;-55
2023/09/14 00:43:13;;;;;;;2.40;1.40;;;;;;;;;;5052526;28;20507;-55
2023/09/14 00:45:40;;;;;;;2.07;1.20;;;;;;;;;;5052041;28;20467;-56
2023/09/14 00:48:08;;;;;;;2.80;1.27;;;;;;;;;;5045591;28;20895;-57
2023/09/14 00:50:37;;;;;;;2.00;1.00;;;;;;;;;;5052652;28;20469;-56
2023/09/14 00:53:05;;;;;;;2.03;1.30;;;;;;;;;;5051914;28;20500;-56
2023/09/14 00:55:33;;;;;;;6.93;2.00;;;;;;;;;;5052526;28;20441;-55
2023/09/14 00:58:00;;;;;;;3.23;1.60;;;;;;;;;;5051912;28;20520;-56
2023/09/14 01:00:28;;;;;;;2.80;1.40;;;;;;;;;;5052750;28;20574;-56
2023/09/14 01:02:56;;;;;;;2.50;1.20;;;;;;;;;;5052153;28;20481;-55
2023/09/14 01:05:24;;;;;;;2.40;1.13;;;;;;;;;;5051733;28;20935;-55
2023/09/14 01:07:53;;;;;;;3.17;1.23;;;;;;;;;;5051882;28;20469;-56
2023/09/14 01:10:20;;;;;;;2.17;1.17;;;;;;;;;;5052346;28;20453;-55
2023/09/14 01:12:48;;;;;;;1.93;1.30;;;;;;;;;;5052078;28;20488;-55
2023/09/14 01:15:19;;;;;;;2.30;1.40;;;;;;;;;;5052007;28;20552;-55
2023/09/14 01:17:50;;;;;;;2.53;1.63;;;;;;;;;;5051896;28;20481;-55
2023/09/14 01:20:33;;;;;;;2.20;1.40;;;;;;;;;;5052023;28;20477;-57
2023/09/14 01:23:08;;;;;;;3.10;1.50;;;;;;;;;;5051318;28;20485;-55
2023/09/14 01:25:42;;;;;;;2.70;1.43;;;;;;;;;;5051869;28;20468;-55
2023/09/14 01:28:09;;;;;;;2.50;1.50;;;;;;;;;;5051848;28;20483;-54
2023/09/14 01:30:37;;;;;;;3.03;1.53;;;;;;;;;;5051521;28;20497;-55
2023/09/14 01:33:05;;;;;;;2.70;2.17;;;;;;;;;;5048144;28;20453;-56
2023/09/14 01:35:35;;;;;;;2.30;1.80;;;;;;;;;;5052006;28;20445;-55
2023/09/14 01:38:02;;;;;;;2.80;1.43;;;;;;;;;;5050956;28;20534;-55
2023/09/14 01:40:30;;;;;;;4.40;1.80;;;;;;;;;;5051460;28;20902;-55
2023/09/14 01:42:59;;;;;;;3.53;1.83;;;;;;;;;;5051558;28;20447;-55
2023/09/14 01:45:26;;;;;;;3.37;2.00;;;;;;;;;;5050663;28;20473;-55
2023/09/14 01:47:53;;;;;;;3.90;1.67;;;;;;;;;;5050841;28;20469;-57
2023/09/14 01:50:20;;;;;;;3.13;1.70;;;;;;;;;;5051946;28;20522;-56
2023/09/14 01:52:49;;;;;;;2.77;2.10;;;;;;;;;;5051048;28;20442;-56
2023/09/14 01:55:17;;;;;;;3.97;2.00;;;;;;;;;;5051219;28;20493;-55
2023/09/14 01:57:44;;;;;;;3.70;1.80;;;;;;;;;;5050684;28;20540;-56
2023/09/14 02:00:13;;;;;;;2.37;1.40;;;;;;;;;;5051428;28;20477;-56
2023/09/14 02:02:40;;;;;;;2.30;1.80;;;;;;;;;;5050843;28;20481;-54
2023/09/14 02:05:08;;;;;;;3.03;1.83;;;;;;;;;;5050740;28;20473;-56
2023/09/14 02:07:35;;;;;;;3.20;1.90;;;;;;;;;;5050800;28;20488;-55
2023/09/14 02:10:02;;;;;;;3.70;1.70;;;;;;;;;;5050755;28;20474;-55
2023/09/14 02:12:29;;;;;;;2.50;1.60;;;;;;;;;;5051044;28;20534;-57
2023/09/14 02:14:57;;;;;;;2.57;1.77;;;;;;;;;;5050365;28;20503;-55
2023/09/14 02:17:25;;;;;;;4.90;1.60;;;;;;;;;;5050720;28;20481;-57
2023/09/14 02:19:54;;;;;;;2.70;1.80;;;;;;;;;;5050995;28;20445;-55
2023/09/14 02:22:22;;;;;;;3.37;1.90;;;;;;;;;;5050826;28;20551;-56
2023/09/14 02:24:49;;;;;;;3.60;2.00;;;;;;;;;;5050808;28;20478;-56
2023/09/14 02:27:16;;;;;;;3.97;2.47;;;;;;;;;;5050026;28;20625;-55
2023/09/14 02:29:43;;;;;;;2.83;1.50;;;;;;;;;;5050383;28;20975;-55
2023/09/14 02:32:11;;;;;;;4.43;2.40;;;;;;;;;;5050670;28;20497;-56
2023/09/14 02:34:39;;;;;;;2.17;1.50;;;;;;;;;;5050748;28;20551;-54
2023/09/14 02:37:06;;;;;;;2.80;1.90;;;;;;;;;;5050262;28;20554;-56
2023/09/14 02:39:34;;;;;;;2.77;1.83;;;;;;;;;;5050183;28;20966;-55
2023/09/14 02:42:01;;;;;;;4.33;1.27;;;;;;;;;;5050073;28;20497;-55
2023/09/14 02:44:28;;;;;;;2.10;1.30;;;;;;;;;;5050411;28;20575;-54
2023/09/14 02:46:56;;;;;;;2.37;1.37;;;;;;;;;;5049877;28;20472;-54
2023/09/14 02:49:23;;;;;;;3.10;1.60;;;;;;;;;;5050472;28;20803;-54
2023/09/14 02:51:52;;;;;;;2.10;1.10;;;;;;;;;;5050320;28;20535;-55
2023/09/14 02:54:19;;;;;;;3.53;1.50;;;;;;;;;;5049863;28;20452;-58
2023/09/14 02:56:47;;;;;;;3.20;1.70;;;;;;;;;;5049086;28;20459;-55
2023/09/14 02:59:16;;;;;;;3.90;1.37;;;;;;;;;;5049971;28;20449;-55
2023/09/14 03:01:44;;;;;;;2.87;1.27;;;;;;;;;;5049598;28;20817;-55
2023/09/14 03:04:11;;;;;;;3.10;1.70;;;;;;;;;;5050216;28;20499;-55
2023/09/14 03:06:38;;;;;;;2.70;2.07;;;;;;;;;;5050217;28;20469;-55
2023/09/14 03:09:07;;;;;;;2.40;1.60;;;;;;;;;;5049736;28;20445;-56
2023/09/14 03:11:34;;;;;;;1.80;1.20;;;;;;;;;;5097445;22;20513;-57
2023/09/14 03:14:03;;;;;;;2.80;1.60;;;;;;;;;;5029650;28;20442;-57
2023/09/14 03:16:30;;;;;;;4.47;1.73;;;;;;;;;;5029989;28;20528;-57
2023/09/14 03:18:57;;;;;;;2.87;1.53;;;;;;;;;;5029784;28;20481;-57
2023/09/14 03:21:26;;;;;;;2.87;1.50;;;;;;;;;;5030060;28;20551;-57
2023/09/14 03:23:53;;;;;;;2.03;1.10;;;;;;;;;;5029836;28;20477;-57
2023/09/14 03:26:23;;;;;;;2.30;1.47;;;;;;;;;;5029847;28;20446;-56
2023/09/14 03:28:51;;;;;;;2.13;1.33;;;;;;;;;;5029562;28;20450;-57
2023/09/14 03:31:18;;;;;;;5.40;1.70;;;;;;;;;;5029885;28;20512;-56
2023/09/14 03:33:47;;;;;;;2.37;1.40;;;;;;;;;;5029435;28;20486;-56
2023/09/14 03:36:14;;;;;;;1.60;0.90;;;;;;;;;;5029810;28;20474;-57
2023/09/14 03:38:42;;;;;;;1.93;1.27;;;;;;;;;;5028849;28;20513;-57
2023/09/14 03:41:10;;;;;;;2.00;1.20;;;;;;;;;;5029804;28;20567;-57
2023/09/14 03:43:39;;;;;;;3.37;1.60;;;;;;;;;;5029631;28;20457;-57
2023/09/14 03:46:06;;;;;;;2.43;1.40;;;;;;;;;;5029538;28;20482;-57
2023/09/14 03:48:33;;;;;;;2.83;1.30;;;;;;;;;;5029215;28;20508;-57
2023/09/14 03:51:01;;;;;;;3.57;1.70;;;;;;;;;;5029520;28;20555;-57
2023/09/14 03:53:28;;;;;;;2.30;1.50;;;;;;;;;;5029647;28;20983;-57
2023/09/14 03:55:55;;;;;;;2.60;1.50;;;;;;;;;;5029236;28;21013;-57
2023/09/14 03:58:23;;;;;;;3.07;1.33;;;;;;;;;;5029464;28;20505;-57
2023/09/14 04:00:52;;;;;;;2.80;1.50;;;;;;;;;;5029426;28;20442;-57
2023/09/14 04:03:19;;;;;;;2.00;1.20;;;;;;;;;;5029151;28;20841;-57
2023/09/14 04:05:47;;;;;;;3.60;1.53;;;;;;;;;;5029500;28;20478;-56
2023/09/14 04:08:14;;;;;;;2.00;1.13;;;;;;;;;;5031300;28;20442;-57
2023/09/14 04:10:42;;;;;;;3.20;2.13;;;;;;;;;;5033090;28;20500;-57
2023/09/14 04:13:32;;;;;;;3.33;1.93;;;;;;;;;;5033037;28;20540;-57
2023/09/14 04:16:01;;;;;;;3.10;1.50;;;;;;;;;;5033354;28;20446;-57
2023/09/14 04:18:29;;;;;;;3.77;1.50;;;;;;;;;;5032786;28;21011;-56
2023/09/14 04:20:56;;;;;;;2.53;1.40;;;;;;;;;;5033115;28;20485;-57
2023/09/14 04:23:23;;;;;;;2.53;1.47;;;;;;;;;;5033160;28;20469;-57
2023/09/14 04:25:51;;;;;;;2.27;1.40;;;;;;;;;;5032459;28;20454;-56
2023/09/14 04:28:21;;;;;;;2.33;1.70;;;;;;;;;;5033222;28;20450;-57
2023/09/14 04:30:49;;;;;;;2.07;1.27;;;;;;;;;;5032591;28;20532;-57
2023/09/14 04:33:18;;;;;;;3.70;1.47;;;;;;;;;;5032902;28;21000;-57
2023/09/14 04:35:45;;;;;;;2.37;1.70;;;;;;;;;;5033120;28;20512;-57
2023/09/14 04:38:13;;;;;;;2.40;1.50;;;;;;;;;;5032508;28;20506;-57
2023/09/14 04:40:41;;;;;;;2.70;1.50;;;;;;;;;;5031164;28;20485;-57
2023/09/14 04:43:08;;;;;;;2.07;1.53;;;;;;;;;;5032645;28;20505;-57
2023/09/14 04:45:35;;;;;;;2.63;1.47;;;;;;;;;;5032213;28;20629;-57
2023/09/14 04:48:02;;;;;;;3.67;1.60;;;;;;;;;;5031668;28;20520;-56
2023/09/14 04:50:31;;;;;;;2.83;1.80;;;;;;;;;;5031754;28;20511;-57
2023/09/14 04:52:59;;;;;;;4.37;1.40;;;;;;;;;;5032495;28;20485;-56
2023/09/14 04:55:26;;;;;;;2.53;1.53;;;;;;;;;;5032140;28;20991;-57
2023/09/14 04:57:53;;;;;;;2.60;1.60;;;;;;;;;;5031463;28;20528;-57
2023/09/14 05:00:21;;;;;;;2.90;1.47;;;;;;;;;;5031954;28;20465;-57
2023/09/14 05:02:48;;;;;;;2.67;1.30;;;;;;;;;;5031614;28;20520;-56
2023/09/14 05:05:15;;;;;;;3.70;1.83;;;;;;;;;;5031985;28;20478;-56
2023/09/14 05:07:44;;;;;;;2.00;1.40;;;;;;;;;;5031817;28;20447;-56
2023/09/14 05:10:11;;;;;;;2.47;1.40;;;;;;;;;;5031822;28;20450;-57
2023/09/14 05:12:38;;;;;;;4.30;1.60;;;;;;;;;;5030827;28;20469;-57
2023/09/14 05:15:06;;;;;;;2.87;1.90;;;;;;;;;;5032006;28;20501;-57
2023/09/14 05:17:33;;;;;;;3.03;1.47;;;;;;;;;;5031084;28;20476;-56
2023/09/14 05:20:00;;;;;;;2.60;1.97;;;;;;;;;;5030139;28;20891;-56
2023/09/14 05:22:28;;;;;;;2.73;1.97;;;;;;;;;;5031503;28;20462;-57
2023/09/14 05:24:56;;;;;;;3.37;1.80;;;;;;;;;;5031493;28;20504;-57
2023/09/14 05:27:24;;;;;;;3.80;2.40;;;;;;;;;;5030710;28;20478;-57
2023/09/14 05:29:51;;;;;;;2.67;1.87;;;;;;;;;;5030036;28;20516;-57
2023/09/14 05:32:18;;;;;;;3.30;1.53;;;;;;;;;;5025623;28;20505;-57
2023/09/14 05:34:45;;;;;;;2.80;2.00;;;;;;;;;;5030351;28;20474;-57
2023/09/14 05:37:14;;;;;;;3.53;2.00;;;;;;;;;;5027640;28;21012;-56
2023/09/14 05:39:41;;;;;;;3.50;1.37;;;;;;;;;;5029636;28;20845;-57
2023/09/14 05:42:10;;;;;;;2.33;1.70;;;;;;;;;;5028475;28;20555;-57
2023/09/14 05:44:37;;;;;;;2.93;2.40;;;;;;;;;;5029407;28;20501;-57
2023/09/14 05:47:05;;;;;;;2.83;2.00;;;;;;;;;;5028521;28;20474;-56
2023/09/14 05:49:32;;;;;;;3.00;1.60;;;;;;;;;;5029478;28;20434;-56
2023/09/14 05:51:59;;;;;;;3.37;2.17;;;;;;;;;;5029648;28;20524;-56
2023/09/14 05:54:26;;;;;;;3.07;1.87;;;;;;;;;;5030258;28;20592;-57
2023/09/14 05:56:54;;;;;;;2.50;1.97;;;;;;;;;;5030557;28;20448;-56
2023/09/14 05:59:22;;;;;;;2.10;1.90;;;;;;;;;;5029919;28;20579;-56
2023/09/14 06:01:49;;;;;;;4.87;1.87;;;;;;;;;;5029330;28;20470;-57
2023/09/14 06:04:18;;;;;;;2.70;1.67;;;;;;;;;;5031143;28;20478;-57
2023/09/14 06:06:45;;;;;;;2.20;1.53;;;;;;;;;;5030740;28;20520;-57
2023/09/14 06:09:12;;;;;;;2.67;1.70;;;;;;;;;;5030059;28;20478;-56
2023/09/14 06:11:40;;;;;;;4.30;2.33;;;;;;;;;;5029640;28;20469;-57
2023/09/14 06:14:07;;;;;;;7.20;2.27;;;;;;;;;;5029749;28;20500;-57
2023/09/14 06:16:36;;;;;;;2.30;1.60;;;;;;;;;;5028127;28;20446;-57
2023/09/14 06:19:03;;;;;;;3.27;2.00;;;;;;;;;;5028336;28;20571;-57
2023/09/14 06:21:30;;;;;;;3.70;2.27;;;;;;;;;;5020816;28;20506;-57
2023/09/14 06:23:58;;;;;;;3.93;2.43;;;;;;;;;;5028407;28;20863;-57
2023/09/14 06:26:25;;;;;;;3.50;2.10;;;;;;;;;;5029938;28;20957;-57
2023/09/14 06:28:52;;;;;;;3.83;2.37;;;;;;;;;;5029857;28;20477;-57
2023/09/14 06:31:19;;;;;;;3.23;2.47;;;;;;;;;;5029533;28;20496;-57
2023/09/14 06:33:49;;;;;;;3.30;2.50;;;;;;;;;;5029987;28;21011;-57
2023/09/14 06:36:17;;;;;;;2.60;2.30;;;;;;;;;;5028892;28;21012;-57
2023/09/14 06:38:44;;;;;;;3.10;2.20;;;;;;;;;;5029688;28;20508;-57
2023/09/14 06:41:12;;;;;;;2.93;2.50;;;;;;;;;;5029762;28;20465;-57
2023/09/14 06:43:40;;;;;;;3.47;2.17;;;;;;;;;;5028832;28;20490;-57
2023/09/14 06:46:07;;;;;;;2.90;1.90;;;;;;;;;;5029993;28;20529;-57
2023/09/14 06:48:35;;;;;;;2.97;2.27;;;;;;;;;;5029500;28;20485;-57
2023/09/14 06:51:05;;;;;;;3.50;2.00;;;;;;;;;;5029529;28;20458;-57
2023/09/14 06:53:32;;;;;;;4.40;1.67;;;;;;;;;;5029421;28;20500;-57
2023/09/14 06:56:05;;;;;;;2.57;1.90;;;;;;;;;;5026950;28;20461;-56
2023/09/14 06:58:32;;;;;;;3.30;1.87;;;;;;;;;;5027951;28;20520;-57
2023/09/14 07:01:03;;;;;;;2.43;1.70;;;;;;;;;;5029680;28;21316;-56
2023/09/14 07:03:30;;;;;;;3.73;1.73;;;;;;;;;;5029749;28;20866;-57
2023/09/14 07:05:58;;;;;;;3.47;1.90;;;;;;;;;;5026020;28;20559;-57
2023/09/14 07:08:26;;;;;;;2.83;1.70;;;;;;;;;;5029110;28;20462;-56
2023/09/14 07:10:54;;;;;;;3.97;2.30;;;;;;;;;;5029487;28;20446;-56
2023/09/14 07:13:22;;;;;;;5.93;2.70;;;;;;;;;;5028872;28;20527;-57
2023/09/14 07:15:49;;;;;;;2.73;1.97;;;;;;;;;;5030927;28;20921;-57
2023/09/14 07:18:27;;;;;;;3.50;1.87;;;;;;;;;;5025911;28;20498;-57
2023/09/14 07:20:54;;;;;;;3.60;2.33;;;;;;;;;;5028844;28;20458;-57
2023/09/14 07:23:21;;;;;;;5.00;2.70;;;;;;;;;;5028912;28;20438;-58
2023/09/14 07:25:50;;;;;;;3.20;2.33;;;;;;;;;;5029522;28;20932;-58
2023/09/14 07:28:18;;;;;;;2.63;2.07;;;;;;;;;;5028397;28;20462;-57
2023/09/14 07:30:45;;;;;;;2.87;1.80;;;;;;;;;;5029153;28;20828;-56
2023/09/14 07:33:13;;;;;;;3.10;1.97;;;;;;;;;;5028944;28;20492;-56
2023/09/14 07:35:40;;;;;;;2.90;1.63;;;;;;;;;;5027067;28;20438;-56
2023/09/14 07:38:09;;;;;;;3.23;1.97;;;;;;;;;;5029010;28;20933;-56
2023/09/14 07:40:36;;;;;;;2.93;2.00;;;;;;;;;;5030629;28;20453;-57
2023/09/14 07:43:05;;;;;;;3.10;2.30;;;;;;;;;;5031106;28;20520;-57
2023/09/14 07:45:33;;;;;;;3.33;2.10;;;;;;;;;;5033308;28;20868;-57
2023/09/14 07:48:01;;;;;;;3.87;2.60;;;;;;;;;;5032870;28;20533;-57
2023/09/14 07:50:29;;;;;;;2.93;1.80;;;;;;;;;;5028806;28;20487;-57
2023/09/14 07:52:56;;;;;;;3.00;1.80;;;;;;;;;;5032870;28;20494;-57
2023/09/14 07:55:23;;;;;;;2.87;2.00;;;;;;;;;;5030766;28;20430;-57
2023/09/14 07:57:50;;;;;;;3.67;2.17;;;;;;;;;;5032482;28;20545;-57
2023/09/14 08:00:19;;;;;;;2.60;2.30;;;;;;;;;;5032441;28;20513;-57
2023/09/14 08:02:46;;;;;;;2.20;1.43;;;;;;;;;;5027937;28;21000;-57
2023/09/14 08:05:13;;;;;;;2.80;1.50;;;;;;;;;;5032631;28;20470;-57
2023/09/14 08:07:41;;;;;;;8.27;2.77;;;;;;;;;;5035144;28;20465;-57
2023/09/14 08:10:09;;;;;;;4.60;2.23;;;;;;;;;;5033467;28;20518;-57
2023/09/14 08:12:37;;;;;;;6.70;2.43;;;;;;;;;;5032337;28;20478;-57
2023/09/14 08:15:04;;;;;;;3.93;2.03;;;;;;;;;;5030413;28;20830;-57
2023/09/14 08:17:33;;;;;;;2.70;1.70;;;;;;;;;;5032556;28;20466;-58
2023/09/14 08:20:01;;;;;;;4.57;2.20;;;;;;;;;;5031967;28;20517;-57
2023/09/14 08:22:28;;;;;;;3.37;2.00;;;;;;;;;;5032852;28;20599;-57
2023/09/14 08:25:00;;;;;;;18.57;3.90;;;;;;;;;;5033074;28;20481;-57
2023/09/14 08:27:28;;;;;;;2.70;1.80;;;;;;;;;;5032673;28;20457;-58
2023/09/14 08:29:55;;;;;;;3.00;2.10;;;;;;;;;;5032914;28;20545;-58
2023/09/14 08:32:22;;;;;;;2.43;1.63;;;;;;;;;;5032975;28;20462;-58
2023/09/14 08:34:51;;;;;;;7.80;3.43;;;;;;;;;;5032828;28;21026;-57
2023/09/14 08:37:18;;;;;;;4.63;2.53;;;;;;;;;;5033275;28;20454;-57
2023/09/14 08:39:45;;;;;;;2.53;1.57;;;;;;;;;;5032743;28;20560;-57
2023/09/14 08:42:13;;;;;;;2.90;1.50;;;;;;;;;;5032566;28;20987;-57
2023/09/14 08:44:43;;;;;;;2.90;2.07;;;;;;;;;;5032508;28;20964;-58
2023/09/14 08:47:11;;;;;;;2.47;1.30;;;;;;;;;;5032579;28;20449;-58
2023/09/14 08:49:39;;;;;;;2.27;1.60;;;;;;;;;;5032468;28;20531;-58
2023/09/14 08:52:08;;;;;;;2.87;1.77;;;;;;;;;;5032651;28;20490;-58
2023/09/14 08:54:35;;;;;;;2.60;1.67;;;;;;;;;;5031056;28;20442;-58
2023/09/14 08:57:04;;;;;;;2.67;1.53;;;;;;;;;;5031999;28;20957;-58
2023/09/14 08:59:32;;;;;;;2.37;1.37;;;;;;;;;;5032567;28;20575;-58
2023/09/14 09:01:59;;;;;;;4.47;1.60;;;;;;;;;;5032308;28;20631;-57
2023/09/14 09:04:26;;;;;;;3.00;1.40;;;;;;;;;;5032379;28;20473;-58
2023/09/14 09:06:54;;;;;;;2.30;1.30;;;;;;;;;;5031670;28;20516;-57
2023/09/14 09:09:24;;;;;;;2.67;1.30;;;;;;;;;;5032671;28;20442;-57
2023/09/14 09:11:52;;;;;;;2.20;1.37;;;;;;;;;;5052315;22;20497;-58
2023/09/14 09:14:19;;;;;;;1.97;1.23;;;;;;;;;;5052507;28;20532;-57
2023/09/14 09:16:46;;;;;;;1.90;1.30;;;;;;;;;;5052054;28;20464;-55
2023/09/14 09:19:15;;;;;;;2.70;1.70;;;;;;;;;;5052267;28;20606;-55
2023/09/14 09:21:43;;;;;;;2.13;1.40;;;;;;;;;;5052257;28;20516;-57
2023/09/14 09:24:13;;;;;;;3.23;1.50;;;;;;;;;;5052103;28;20525;-55
2023/09/14 09:26:42;;;;;;;2.50;1.30;;;;;;;;;;5051610;28;20441;-56
2023/09/14 09:29:22;;;;;;;2.33;1.20;;;;;;;;;;5052242;28;20472;-57
2023/09/14 09:31:50;;;;;;;3.80;1.40;;;;;;;;;;5051619;28;20987;-55
2023/09/14 09:34:22;;;;;;;2.00;1.40;;;;;;;;;;5051769;28;20453;-55
2023/09/14 09:36:49;;;;;;;2.20;1.47;;;;;;;;;;5051582;28;20480;-55
2023/09/14 09:39:16;;;;;;;2.37;1.60;;;;;;;;;;5051875;28;20521;-56
2023/09/14 09:41:46;;;;;;;1.90;1.10;;;;;;;;;;5051568;28;20497;-56
2023/09/14 09:44:15;;;;;;;2.90;1.70;;;;;;;;;;5051506;28;20447;-56
2023/09/14 09:46:42;;;;;;;2.23;1.40;;;;;;;;;;5051071;28;20445;-55
2023/09/14 09:49:18;;;;;;;3.63;1.53;;;;;;;;;;5051943;28;20477;-56
2023/09/14 09:51:45;;;;;;;2.80;1.47;;;;;;;;;;5051458;28;20465;-58
2023/09/14 09:54:13;;;;;;;2.63;1.67;;;;;;;;;;5051605;28;20534;-55
2023/09/14 09:56:40;;;;;;;2.40;1.60;;;;;;;;;;5050711;28;20481;-58
2023/09/14 09:59:13;;;;;;;2.60;1.60;;;;;;;;;;5051315;28;20516;-56
2023/09/14 10:01:40;;;;;;;3.03;1.73;;;;;;;;;;5051093;28;21061;-58
2023/09/14 10:04:11;;;;;;;3.47;1.70;;;;;;;;;;5051621;28;20540;-56
2023/09/14 10:06:38;;;;;;;2.43;1.73;;;;;;;;;;5050493;28;20445;-58
2023/09/14 10:09:09;;;;;;;3.10;2.17;;;;;;;;;;5051187;28;20437;-56
2023/09/14 10:11:37;;;;;;;2.47;1.87;;;;;;;;;;5050834;28;20476;-55
2023/09/14 10:14:05;;;;;;;2.40;1.93;;;;;;;;;;5051370;28;20441;-55
2023/09/14 10:16:36;;;;;;;3.20;1.97;;;;;;;;;;5049718;28;20477;-55
2023/09/14 10:19:03;;;;;;;2.70;2.40;;;;;;;;;;5049817;28;20473;-57
2023/09/14 10:21:31;;;;;;;3.50;1.90;;;;;;;;;;5050379;28;20471;-57
2023/09/14 10:23:58;;;;;;;2.37;1.63;;;;;;;;;;5050692;28;20544;-57
2023/09/14 10:26:26;;;;;;;2.43;1.63;;;;;;;;;;5050641;28;20473;-55
2023/09/14 10:28:54;;;;;;;2.63;2.00;;;;;;;;;;5049677;28;20534;-57
2023/09/14 10:31:22;;;;;;;3.17;2.20;;;;;;;;;;5049605;28;20461;-55
2023/09/14 10:33:51;;;;;;;2.90;2.10;;;;;;;;;;5049204;28;20519;-56
2023/09/14 10:36:18;;;;;;;3.17;2.23;;;;;;;;;;5047408;28;20917;-55
2023/09/14 10:38:48;;;;;;;2.37;1.70;;;;;;;;;;5049933;28;20442;-57
2023/09/14 10:41:15;;;;;;;2.57;2.00;;;;;;;;;;5049733;28;20999;-56
2023/09/14 10:43:42;;;;;;;2.80;1.80;;;;;;;;;;5049800;28;21009;-55
2023/09/14 10:46:15;;;;;;;2.80;1.90;;;;;;;;;;5050173;28;20523;-55
2023/09/14 10:48:43;;;;;;;2.30;1.70;;;;;;;;;;5047985;28;20437;-55
2023/09/14 10:51:13;;;;;;;2.70;1.93;;;;;;;;;;5049654;28;20585;-56
2023/09/14 10:53:40;;;;;;;2.40;1.77;;;;;;;;;;5050794;28;20453;-57
2023/09/14 10:56:20;;;;;;;2.93;2.40;;;;;;;;;;5043024;28;20883;-56
2023/09/14 10:58:51;;;;;;;3.70;3.00;;;;;;;;;;5050538;28;20464;-56
2023/09/14 11:01:24;;;;;;;2.83;2.33;;;;;;;;;;5050160;28;20491;-55
2023/09/14 11:04:12;;;;;;;2.90;2.47;;;;;;;;;;5050053;28;20452;-56
2023/09/14 11:06:44;;;;;;;3.53;2.77;;;;;;;;;;5050621;28;20451;-56
2023/09/14 11:09:13;;;;;;;3.23;2.57;;;;;;;;;;5049500;28;20530;-55
2023/09/14 11:11:41;;;;;;;4.73;3.07;;;;;;;;;;5048559;28;20500;-56
2023/09/14 11:14:09;;;;;;;5.90;2.80;;;;;;;;;;5049930;28;20444;-55
2023/09/14 11:16:43;;;;;;;3.17;2.80;;;;;;;;;;5049663;28;20438;-54
2023/09/14 11:19:10;;;;;;;3.23;2.93;;;;;;;;;;5050090;28;20442;-54
2023/09/14 11:21:45;;;;;;;3.47;2.80;;;;;;;;;;5049541;28;20918;-58
2023/09/14 11:24:13;;;;;;;3.40;2.47;;;;;;;;;;5049787;28;20472;-55
2023/09/14 11:26:48;;;;;;;3.30;2.57;;;;;;;;;;5049612;28;20441;-57
2023/09/14 11:29:15;;;;;;;3.33;2.73;;;;;;;;;;5049912;28;20966;-54
2023/09/14 11:31:43;;;;;;;3.60;2.73;;;;;;;;;;5049566;28;20465;-56
2023/09/14 11:34:14;;;;;;;3.97;3.00;;;;;;;;;;5050287;28;20437;-57
2023/09/14 11:36:42;;;;;;;3.10;2.70;;;;;;;;;;5049704;28;20939;-55
2023/09/14 11:39:11;;;;;;;3.67;2.70;;;;;;;;;;5049617;28;20465;-55
2023/09/14 11:41:40;;;;;;;3.77;2.67;;;;;;;;;;5050058;28;20539;-55
2023/09/14 11:44:07;;;;;;;3.80;2.57;;;;;;;;;;5049950;28;20473;-57
2023/09/14 11:46:37;;;;;;;3.60;2.83;;;;;;;;;;5049965;28;20469;-57
2023/09/14 11:49:05;;;;;;;3.10;2.60;;;;;;;;;;5049780;28;20449;-57
2023/09/14 11:51:32;;;;;;;3.90;3.40;;;;;;;;;;5049832;28;20511;-56
2023/09/14 11:54:00;;;;;;;3.30;2.60;;;;;;;;;;5050072;28;20449;-56
2023/09/14 11:56:28;;;;;;;3.20;2.60;;;;;;;;;;5049634;28;20440;-56
2023/09/14 11:58:58;;;;;;;3.27;2.87;;;;;;;;;;5049993;28;20469;-56
2023/09/14 12:01:26;;;;;;;3.40;2.57;;;;;;;;;;5049566;28;20489;-56
2023/09/14 12:03:54;;;;;;;3.60;2.80;;;;;;;;;;5049586;28;20536;-55
2023/09/14 12:06:21;;;;;;;3.47;3.10;;;;;;;;;;5049552;28;20477;-56
2023/09/14 12:08:49;;;;;;;3.77;2.87;;;;;;;;;;5049430;28;20528;-56
2023/09/14 12:11:18;;;;;;;3.70;2.63;;;;;;;;;;5049582;28;20507;-57
2023/09/14 12:13:53;;;;;;;3.57;3.23;;;;;;;;;;5049530;28;20896;-56
2023/09/14 12:16:21;;;;;;;4.47;3.90;;;;;;;;;;5049441;28;20480;-58
2023/09/14 12:18:49;;;;;;;2.83;2.53;;;;;;;;;;5049265;28;20452;-56
2023/09/14 12:21:17;;;;;;;3.70;2.63;;;;;;;;;;5049195;28;20919;-57
2023/09/14 12:23:46;;;;;;;4.80;3.37;;;;;;;;;;5049576;28;20843;-58
2023/09/14 12:26:15;;;;;;;3.87;3.20;;;;;;;;;;5049526;28;20437;-55
2023/09/14 12:28:42;;;;;;;2.90;2.40;;;;;;;;;;5050991;28;20646;-55
2023/09/14 12:31:11;;;;;;;3.97;2.97;;;;;;;;;;5052794;28;20473;-57
2023/09/14 12:33:39;;;;;;;2.63;2.13;;;;;;;;;;5053366;28;20441;-57
2023/09/14 12:36:08;;;;;;;3.40;2.40;;;;;;;;;;5052899;28;20870;-56
2023/09/14 12:38:35;;;;;;;4.20;2.40;;;;;;;;;;5052858;28;20441;-55
2023/09/14 12:41:05;;;;;;;3.53;2.80;;;;;;;;;;5053079;28;20488;-57
2023/09/14 12:43:33;;;;;;;4.00;2.80;;;;;;;;;;5052784;28;20449;-55
2023/09/14 12:46:00;;;;;;;3.20;2.57;;;;;;;;;;5052790;28;20476;-56
2023/09/14 12:48:30;;;;;;;3.53;2.90;;;;;;;;;;5052742;28;20437;-56
2023/09/14 12:50:58;;;;;;;2.77;2.20;;;;;;;;;;5052904;28;20515;-55
2023/09/14 12:53:26;;;;;;;2.83;2.30;;;;;;;;;;5052790;28;20469;-57
2023/09/14 12:55:54;;;;;;;3.23;2.73;;;;;;;;;;5052738;28;20896;-57
2023/09/14 12:58:21;;;;;;;3.33;3.03;;;;;;;;;;5052529;28;20445;-55
2023/09/14 13:00:49;;;;;;;5.43;2.63;;;;;;;;;;5052509;28;20492;-56
2023/09/14 13:03:18;;;;;;;3.33;2.90;;;;;;;;;;5052636;28;20554;-56
2023/09/14 13:05:47;;;;;;;2.90;2.50;;;;;;;;;;5052424;28;20947;-55
2023/09/14 13:08:14;;;;;;;3.27;2.43;;;;;;;;;;5051894;28;20445;-57
2023/09/14 13:10:43;;;;;;;3.60;2.80;;;;;;;;;;5052156;28;20538;-56
2023/09/14 13:13:11;;;;;;;2.90;2.40;;;;;;;;;;5052000;28;20469;-57
2023/09/14 13:15:39;;;;;;;3.70;2.70;;;;;;;;;;5052372;28;20476;-57
2023/09/14 13:18:09;;;;;;;3.27;2.57;;;;;;;;;;5052088;28;20441;-57
2023/09/14 13:20:37;;;;;;;3.07;2.57;;;;;;;;;;5052068;28;21006;-57
2023/09/14 13:23:06;;;;;;;3.10;2.23;;;;;;;;;;5052000;28;20520;-56
2023/09/14 13:25:34;;;;;;;3.10;2.70;;;;;;;;;;5052061;28;20450;-56
2023/09/14 13:28:03;;;;;;;3.67;2.57;;;;;;;;;;5051843;28;20929;-58
2023/09/14 13:30:30;;;;;;;3.30;2.87;;;;;;;;;;5052115;28;20445;-57
2023/09/14 13:32:58;;;;;;;4.40;3.47;;;;;;;;;;5050716;28;20484;-58
2023/09/14 13:35:26;;;;;;;4.23;2.80;;;;;;;;;;5051920;28;20499;-56
2023/09/14 13:37:54;;;;;;;3.97;2.63;;;;;;;;;;5051528;28;20535;-56
2023/09/14 13:40:23;;;;;;;5.30;3.30;;;;;;;;;;5051458;28;20488;-58
2023/09/14 13:42:51;;;;;;;3.63;2.90;;;;;;;;;;5051713;28;20461;-57
2023/09/14 13:45:19;;;;;;;3.80;3.40;;;;;;;;;;5052128;28;20781;-57
2023/09/14 13:47:47;;;;;;;3.60;2.93;;;;;;;;;;5051581;28;20477;-56
2023/09/14 13:50:15;;;;;;;4.20;3.20;;;;;;;;;;5051541;28;20535;-56
2023/09/14 13:52:42;;;;;;;3.50;2.53;;;;;;;;;;5051283;28;20568;-56
2023/09/14 13:55:10;;;;;;;3.47;2.70;;;;;;;;;;5051457;28;20507;-56
2023/09/14 13:57:40;;;;;;;3.37;2.53;;;;;;;;;;5051233;28;20450;-56
2023/09/14 14:00:08;;;;;;;3.23;2.40;;;;;;;;;;5051509;28;20502;-56
2023/09/14 14:02:36;;;;;;;2.83;2.10;;;;;;;;;;5051206;28;20461;-56
2023/09/14 14:05:04;;;;;;;2.80;2.30;;;;;;;;;;5051222;28;20502;-56
2023/09/14 14:07:31;;;;;;;2.93;2.63;;;;;;;;;;5051238;28;20479;-55
2023/09/14 14:09:58;;;;;;;3.73;2.53;;;;;;;;;;5051358;28;20822;-55
2023/09/14 14:12:25;;;;;;;3.10;2.43;;;;;;;;;;5051292;28;20501;-56
2023/09/14 14:14:56;;;;;;;3.00;2.57;;;;;;;;;;5051861;28;20488;-58
2023/09/14 14:17:23;;;;;;;3.50;2.60;;;;;;;;;;5050682;28;20453;-55
2023/09/14 14:19:51;;;;;;;3.03;2.40;;;;;;;;;;5051067;28;20437;-55
2023/09/14 14:22:18;;;;;;;3.30;2.60;;;;;;;;;;5050866;28;20512;-56
2023/09/14 14:24:45;;;;;;;3.53;2.77;;;;;;;;;;5051082;28;20445;-58
2023/09/14 14:27:14;;;;;;;3.13;2.60;;;;;;;;;;5050596;28;21049;-56
2023/09/14 14:29:41;;;;;;;3.87;2.67;;;;;;;;;;5050816;28;20955;-55
2023/09/14 14:32:10;;;;;;;3.13;2.63;;;;;;;;;;5050042;28;20489;-56
2023/09/14 14:34:37;;;;;;;3.73;3.33;;;;;;;;;;5049413;28;20441;-57
2023/09/14 14:37:04;;;;;;;4.00;3.13;;;;;;;;;;5049294;28;20464;-57
2023/09/14 14:39:32;;;;;;;4.40;3.43;;;;;;;;;;5049902;28;20476;-58
2023/09/14 14:41:59;;;;;;;4.00;3.60;;;;;;;;;;5050016;28;20857;-57
2023/09/14 14:44:27;;;;;;;3.50;2.90;;;;;;;;;;5048435;28;20496;-57
2023/09/14 14:46:55;;;;;;;3.77;3.20;;;;;;;;;;5042558;28;20978;-56
2023/09/14 14:49:23;;;;;;;3.53;3.23;;;;;;;;;;5046225;28;20479;-57